createdAt,value
2022-08-29T00:00:47.326Z,1005.44
2022-08-29T00:01:46.613Z,1005.51
2022-08-29T00:02:46.590Z,1005.39
2022-08-29T00:03:46.571Z,1005.48
2022-08-29T00:04:46.527Z,1005.48
2022-08-29T00:05:50.079Z,1005.47
2022-08-29T00:06:46.499Z,1005.43
2022-08-29T00:07:46.500Z,1005.47
2022-08-29T00:08:46.519Z,1005.47
2022-08-29T00:09:46.448Z,1005.43
2022-08-29T00:10:46.450Z,1005.42
2022-08-29T00:11:46.641Z,1005.38
2022-08-29T00:12:46.428Z,1005.38
2022-08-29T00:13:46.387Z,1005.37
2022-08-29T00:14:46.371Z,1005.39
2022-08-29T00:15:46.376Z,1005.43
2022-08-29T00:16:46.420Z,1005.42
2022-08-29T00:17:46.369Z,1005.41
2022-08-29T00:18:46.306Z,1005.46
2022-08-29T00:19:46.302Z,1005.51
2022-08-29T00:20:46.300Z,1005.51
2022-08-29T00:21:46.296Z,1005.52
2022-08-29T00:22:46.304Z,1005.54
2022-08-29T00:23:46.246Z,1005.53
2022-08-29T00:24:46.243Z,1005.52
2022-08-29T00:25:46.221Z,1005.51
2022-08-29T00:26:46.210Z,1005.53
2022-08-29T00:27:49.771Z,1005.48
2022-08-29T00:28:46.161Z,1005.51
2022-08-29T00:29:46.173Z,1005.57
2022-08-29T00:30:46.162Z,1005.55
2022-08-29T00:31:47.074Z,1005.64
2022-08-29T00:32:46.104Z,1005.68
2022-08-29T00:33:46.094Z,1005.76
2022-08-29T00:34:46.079Z,1005.78
2022-08-29T00:35:46.099Z,1005.82
2022-08-29T00:36:48.946Z,1005.93
2022-08-29T00:37:46.028Z,1005.92
2022-08-29T00:38:46.031Z,1005.92
2022-08-29T00:39:46.014Z,1006.00
2022-08-29T00:40:51.638Z,1006.01
2022-08-29T00:41:46.544Z,1006.07
2022-08-29T00:42:45.960Z,1006.06
2022-08-29T00:43:45.961Z,1006.09
2022-08-29T00:44:45.933Z,1006.12
2022-08-29T00:45:45.942Z,1006.13
2022-08-29T00:46:45.891Z,1006.08
2022-08-29T00:47:45.889Z,1006.11
2022-08-29T00:48:45.875Z,1006.15
2022-08-29T00:49:45.874Z,1006.19
2022-08-29T00:50:46.514Z,1006.18
2022-08-29T00:51:45.818Z,1006.19
2022-08-29T00:52:45.822Z,1006.20
2022-08-29T00:53:45.798Z,1006.23
2022-08-29T00:54:45.778Z,1006.21
2022-08-29T00:55:50.371Z,1006.25
2022-08-29T00:56:45.740Z,1006.18
2022-08-29T00:57:45.752Z,1006.21
2022-08-29T00:58:45.739Z,1006.23
2022-08-29T00:59:45.731Z,1006.23
2022-08-29T01:00:45.711Z,1006.20
2022-08-29T01:01:45.718Z,1006.13
2022-08-29T01:02:45.710Z,1006.15
2022-08-29T01:03:45.650Z,1006.07
2022-08-29T01:04:46.527Z,1006.02
2022-08-29T01:05:45.606Z,1005.96
2022-08-29T01:06:45.606Z,1005.89
2022-08-29T01:07:45.591Z,1005.91
2022-08-29T01:08:45.585Z,1005.88
2022-08-29T01:09:45.599Z,1005.83
2022-08-29T01:10:45.534Z,1005.81
2022-08-29T01:11:45.536Z,1005.80
2022-08-29T01:12:45.521Z,1005.71
2022-08-29T01:13:45.517Z,1005.73
2022-08-29T01:14:45.522Z,1005.75
2022-08-29T01:15:45.463Z,1005.73
2022-08-29T01:16:45.679Z,1005.74
2022-08-29T01:17:45.458Z,1005.77
2022-08-29T01:18:45.453Z,1005.87
2022-08-29T01:19:45.400Z,1005.82
2022-08-29T01:20:45.432Z,1005.85
2022-08-29T01:21:45.384Z,1005.84
2022-08-29T01:22:45.382Z,1005.88
2022-08-29T01:23:45.383Z,1005.91
2022-08-29T01:24:45.324Z,1005.83
2022-08-29T01:25:45.405Z,1005.83
2022-08-29T01:26:45.322Z,1005.83
2022-08-29T01:27:45.295Z,1005.77
2022-08-29T01:28:45.321Z,1005.73
2022-08-29T01:29:45.257Z,1005.78
2022-08-29T01:30:45.238Z,1005.77
2022-08-29T01:31:55.989Z,1005.86
2022-08-29T01:32:45.245Z,1005.89
2022-08-29T01:33:45.185Z,1005.95
2022-08-29T01:34:45.185Z,1006.04
2022-08-29T01:35:45.161Z,1006.06
2022-08-29T01:36:45.167Z,1006.13
2022-08-29T01:37:46.097Z,1006.17
2022-08-29T01:38:45.112Z,1006.22
2022-08-29T01:39:45.118Z,1006.18
2022-08-29T01:40:45.096Z,1006.22
2022-08-29T01:41:45.096Z,1006.17
2022-08-29T01:42:45.045Z,1006.20
2022-08-29T01:43:45.039Z,1006.18
2022-08-29T01:44:45.043Z,1006.21
2022-08-29T01:45:45.054Z,1006.22
2022-08-29T01:46:45.034Z,1006.30
2022-08-29T01:47:44.976Z,1006.17
2022-08-29T01:48:44.958Z,1006.13
2022-08-29T01:49:44.946Z,1006.12
2022-08-29T01:50:44.954Z,1006.03
2022-08-29T01:51:44.977Z,1006.07
2022-08-29T01:52:44.897Z,1006.01
2022-08-29T01:53:44.905Z,1005.92
2022-08-29T01:54:44.876Z,1006.00
2022-08-29T01:55:44.852Z,1005.97
2022-08-29T01:56:44.839Z,1005.77
2022-08-29T01:57:44.831Z,1005.77
2022-08-29T01:58:44.804Z,1005.77
2022-08-29T01:59:44.801Z,1005.76
2022-08-29T02:00:44.918Z,1005.78
2022-08-29T02:01:44.818Z,1005.72
2022-08-29T02:02:44.744Z,1005.70
2022-08-29T02:03:44.745Z,1005.80
2022-08-29T02:04:44.794Z,1005.78
2022-08-29T02:05:44.709Z,1005.87
2022-08-29T02:06:44.691Z,1005.82
2022-08-29T02:07:44.682Z,1005.90
2022-08-29T02:08:44.658Z,1005.89
2022-08-29T02:09:45.875Z,1005.88
2022-08-29T02:10:44.622Z,1005.97
2022-08-29T02:11:44.627Z,1005.94
2022-08-29T02:12:44.618Z,1005.98
2022-08-29T02:13:44.603Z,1005.86
2022-08-29T02:14:44.619Z,1005.87
2022-08-29T02:15:44.563Z,1005.76
2022-08-29T02:16:44.596Z,1005.76
2022-08-29T02:17:44.539Z,1005.64
2022-08-29T02:18:44.490Z,1005.61
2022-08-29T02:19:44.479Z,1005.59
2022-08-29T02:20:44.489Z,1005.55
2022-08-29T02:21:44.482Z,1005.48
2022-08-29T02:22:44.464Z,1005.46
2022-08-29T02:23:44.424Z,1005.35
2022-08-29T02:24:44.405Z,1005.40
2022-08-29T02:25:44.436Z,1005.32
2022-08-29T02:26:44.394Z,1005.30
2022-08-29T02:27:44.397Z,1005.30
2022-08-29T02:28:44.394Z,1005.26
2022-08-29T02:29:44.334Z,1005.24
2022-08-29T02:30:44.324Z,1005.26
2022-08-29T02:31:44.353Z,1005.21
2022-08-29T02:32:44.331Z,1005.19
2022-08-29T02:33:44.320Z,1005.18
2022-08-29T02:34:44.811Z,1005.24
2022-08-29T02:35:44.245Z,1005.25
2022-08-29T02:36:44.637Z,1005.25
2022-08-29T02:37:45.082Z,1005.24
2022-08-29T02:38:44.195Z,1005.12
2022-08-29T02:39:44.180Z,1005.09
2022-08-29T02:40:44.212Z,1005.00
2022-08-29T02:41:44.419Z,1004.91
2022-08-29T02:42:44.185Z,1004.87
2022-08-29T02:43:44.108Z,1004.74
2022-08-29T02:44:44.108Z,1004.78
2022-08-29T02:45:44.109Z,1004.73
2022-08-29T02:46:44.122Z,1004.66
2022-08-29T02:47:44.051Z,1004.66
2022-08-29T02:48:54.080Z,1004.58
2022-08-29T02:49:44.027Z,1004.62
2022-08-29T02:50:44.056Z,1004.64
2022-08-29T02:51:44.589Z,1004.63
2022-08-29T02:52:43.982Z,1004.67
2022-08-29T02:53:43.967Z,1004.69
2022-08-29T02:54:43.949Z,1004.70
2022-08-29T02:55:43.930Z,1004.73
2022-08-29T02:56:43.912Z,1004.59
2022-08-29T02:57:43.896Z,1004.60
2022-08-29T02:58:44.597Z,1004.59
2022-08-29T02:59:43.890Z,1004.58
2022-08-29T03:00:44.636Z,1004.57
2022-08-29T03:01:43.861Z,1004.57
2022-08-29T03:02:43.822Z,1004.56
2022-08-29T03:03:43.819Z,1004.57
2022-08-29T03:04:43.781Z,1004.63
2022-08-29T03:05:43.775Z,1004.67
2022-08-29T03:06:43.759Z,1004.73
2022-08-29T03:07:46.889Z,1004.76
2022-08-29T03:08:43.759Z,1004.81
2022-08-29T03:09:43.710Z,1004.96
2022-08-29T03:10:43.700Z,1004.98
2022-08-29T03:11:43.678Z,1004.97
2022-08-29T03:12:43.695Z,1005.05
2022-08-29T03:13:43.682Z,1005.00
2022-08-29T03:14:44.615Z,1005.05
2022-08-29T03:15:43.668Z,1004.96
2022-08-29T03:16:43.611Z,1005.03
2022-08-29T03:17:43.604Z,1005.00
2022-08-29T03:18:43.565Z,1004.95
2022-08-29T03:19:43.556Z,1005.02
2022-08-29T03:20:43.541Z,1005.01
2022-08-29T03:21:43.529Z,1004.95
2022-08-29T03:22:43.543Z,1004.94
2022-08-29T03:23:44.093Z,1004.98
2022-08-29T03:24:43.475Z,1004.94
2022-08-29T03:25:43.469Z,1004.97
2022-08-29T03:26:43.481Z,1004.99
2022-08-29T03:27:43.446Z,1005.00
2022-08-29T03:28:43.415Z,1005.02
2022-08-29T03:29:43.395Z,1005.02
2022-08-29T03:30:43.399Z,1004.99
2022-08-29T03:31:43.415Z,1005.02
2022-08-29T03:32:43.361Z,1004.98
2022-08-29T03:33:43.345Z,1005.00
2022-08-29T03:34:43.324Z,1004.97
2022-08-29T03:35:43.328Z,1004.95
2022-08-29T03:36:43.309Z,1004.96
2022-08-29T03:37:46.111Z,1005.00
2022-08-29T03:38:43.276Z,1005.04
2022-08-29T03:39:43.246Z,1005.06
2022-08-29T03:40:43.283Z,1005.09
2022-08-29T03:41:43.215Z,1005.13
2022-08-29T03:42:43.205Z,1005.13
2022-08-29T03:43:43.192Z,1005.10
2022-08-29T03:44:43.169Z,1005.11
2022-08-29T03:45:43.186Z,1005.09
2022-08-29T03:46:43.218Z,1005.16
2022-08-29T03:47:43.135Z,1005.22
2022-08-29T03:48:43.134Z,1005.24
2022-08-29T03:49:43.134Z,1005.20
2022-08-29T03:50:43.101Z,1005.20
2022-08-29T03:51:43.639Z,1005.16
2022-08-29T03:52:43.052Z,1005.19
2022-08-29T03:53:43.042Z,1005.17
2022-08-29T03:54:43.047Z,1005.22
2022-08-29T03:55:43.004Z,1005.24
2022-08-29T03:56:43.003Z,1005.25
2022-08-29T03:57:42.972Z,1005.23
2022-08-29T03:58:43.619Z,1005.22
2022-08-29T03:59:42.967Z,1005.17
2022-08-29T04:00:43.615Z,1005.23
2022-08-29T04:01:42.958Z,1005.23
2022-08-29T04:02:42.929Z,1005.24
2022-08-29T04:03:42.920Z,1005.25
2022-08-29T04:04:42.883Z,1005.24
2022-08-29T04:05:43.620Z,1005.21
2022-08-29T04:06:42.879Z,1005.21
2022-08-29T04:07:42.832Z,1005.22
2022-08-29T04:08:42.824Z,1005.20
2022-08-29T04:09:42.791Z,1005.25
2022-08-29T04:10:42.781Z,1005.16
2022-08-29T04:11:43.667Z,1005.19
2022-08-29T04:12:42.775Z,1005.20
2022-08-29T04:13:42.764Z,1005.20
2022-08-29T04:14:42.718Z,1005.22
2022-08-29T04:15:42.773Z,1005.23
2022-08-29T04:16:42.689Z,1005.29
2022-08-29T04:17:52.689Z,1005.26
2022-08-29T04:18:42.646Z,1005.28
2022-08-29T04:19:42.629Z,1005.25
2022-08-29T04:20:42.619Z,1005.26
2022-08-29T04:21:42.602Z,1005.26
2022-08-29T04:22:42.602Z,1005.24
2022-08-29T04:23:42.583Z,1005.33
2022-08-29T04:24:42.554Z,1005.33
2022-08-29T04:25:42.543Z,1005.35
2022-08-29T04:26:42.552Z,1005.37
2022-08-29T04:27:42.543Z,1005.37
2022-08-29T04:28:42.511Z,1005.37
2022-08-29T04:29:42.493Z,1005.37
2022-08-29T04:30:42.481Z,1005.35
2022-08-29T04:31:42.523Z,1005.30
2022-08-29T04:32:42.434Z,1005.27
2022-08-29T04:33:42.424Z,1005.26
2022-08-29T04:34:42.410Z,1005.25
2022-08-29T04:35:42.402Z,1005.31
2022-08-29T04:36:42.387Z,1005.39
2022-08-29T04:37:43.137Z,1005.45
2022-08-29T04:38:42.343Z,1005.45
2022-08-29T04:39:42.348Z,1005.53
2022-08-29T04:40:42.408Z,1005.49
2022-08-29T04:41:42.290Z,1005.54
2022-08-29T04:42:42.293Z,1005.47
2022-08-29T04:43:42.258Z,1005.45
2022-08-29T04:44:42.261Z,1005.45
2022-08-29T04:45:42.259Z,1005.49
2022-08-29T04:46:42.288Z,1005.49
2022-08-29T04:47:42.201Z,1005.50
2022-08-29T04:48:42.190Z,1005.47
2022-08-29T04:49:42.192Z,1005.49
2022-08-29T04:50:42.170Z,1005.55
2022-08-29T04:51:42.201Z,1005.57
2022-08-29T04:52:42.124Z,1005.60
2022-08-29T04:53:42.130Z,1005.56
2022-08-29T04:54:42.111Z,1005.55
2022-08-29T04:55:42.648Z,1005.56
2022-08-29T04:56:47.146Z,1005.55
2022-08-29T04:57:42.053Z,1005.56
2022-08-29T04:58:42.074Z,1005.56
2022-08-29T04:59:42.025Z,1005.57
2022-08-29T05:00:42.063Z,1005.58
2022-08-29T05:01:42.285Z,1005.65
2022-08-29T05:02:42.019Z,1005.62
2022-08-29T05:03:42.027Z,1005.64
2022-08-29T05:04:41.935Z,1005.65
2022-08-29T05:05:41.916Z,1005.62
2022-08-29T05:06:41.902Z,1005.67
2022-08-29T05:07:41.908Z,1005.63
2022-08-29T05:08:41.903Z,1005.65
2022-08-29T05:09:41.865Z,1005.67
2022-08-29T05:10:41.842Z,1005.65
2022-08-29T05:11:41.837Z,1005.63
2022-08-29T05:12:41.831Z,1005.67
2022-08-29T05:13:42.643Z,1005.67
2022-08-29T05:14:41.775Z,1005.67
2022-08-29T05:15:41.798Z,1005.63
2022-08-29T05:16:41.766Z,1005.64
2022-08-29T05:17:41.769Z,1005.65
2022-08-29T05:18:41.775Z,1005.63
2022-08-29T05:19:45.149Z,1005.61
2022-08-29T05:20:41.697Z,1005.62
2022-08-29T05:21:41.677Z,1005.59
2022-08-29T05:22:41.648Z,1005.60
2022-08-29T05:23:41.632Z,1005.62
2022-08-29T05:24:41.616Z,1005.61
2022-08-29T05:25:41.606Z,1005.57
2022-08-29T05:26:41.611Z,1005.64
2022-08-29T05:27:42.160Z,1005.64
2022-08-29T05:28:41.548Z,1005.63
2022-08-29T05:29:41.545Z,1005.63
2022-08-29T05:30:41.603Z,1005.64
2022-08-29T05:31:41.522Z,1005.65
2022-08-29T05:32:41.548Z,1005.68
2022-08-29T05:33:41.471Z,1005.65
2022-08-29T05:34:41.482Z,1005.64
2022-08-29T05:35:41.468Z,1005.66
2022-08-29T05:36:41.445Z,1005.73
2022-08-29T05:37:41.407Z,1005.68
2022-08-29T05:38:41.408Z,1005.71
2022-08-29T05:39:41.398Z,1005.76
2022-08-29T05:40:41.428Z,1005.73
2022-08-29T05:41:41.347Z,1005.75
2022-08-29T05:42:41.333Z,1005.73
2022-08-29T05:43:41.320Z,1005.74
2022-08-29T05:44:41.331Z,1005.75
2022-08-29T05:45:42.167Z,1005.74
2022-08-29T05:46:41.377Z,1005.73
2022-08-29T05:47:41.261Z,1005.78
2022-08-29T05:48:41.273Z,1005.80
2022-08-29T05:49:41.220Z,1005.77
2022-08-29T05:50:41.205Z,1005.77
2022-08-29T05:51:41.191Z,1005.80
2022-08-29T05:52:41.193Z,1005.84
2022-08-29T05:53:41.183Z,1005.83
2022-08-29T05:54:41.708Z,1005.82
2022-08-29T05:55:41.125Z,1005.87
2022-08-29T05:56:41.118Z,1005.93
2022-08-29T05:57:41.110Z,1005.91
2022-08-29T05:58:41.117Z,1005.98
2022-08-29T05:59:41.061Z,1005.99
2022-08-29T06:00:41.048Z,1005.98
2022-08-29T06:01:41.050Z,1005.99
2022-08-29T06:02:41.175Z,1006.02
2022-08-29T06:03:45.455Z,1006.01
2022-08-29T06:04:40.987Z,1006.01
2022-08-29T06:05:40.972Z,1006.01
2022-08-29T06:06:41.008Z,1006.07
2022-08-29T06:07:40.964Z,1006.04
2022-08-29T06:08:40.981Z,1006.04
2022-08-29T06:09:40.905Z,1006.05
2022-08-29T06:10:40.910Z,1006.05
2022-08-29T06:11:40.888Z,1006.04
2022-08-29T06:12:40.866Z,1006.06
2022-08-29T06:13:40.841Z,1006.09
2022-08-29T06:14:40.838Z,1006.10
2022-08-29T06:15:40.891Z,1006.07
2022-08-29T06:16:40.836Z,1006.12
2022-08-29T06:17:40.799Z,1006.09
2022-08-29T06:18:40.770Z,1006.12
2022-08-29T06:19:40.763Z,1006.07
2022-08-29T06:20:40.761Z,1006.15
2022-08-29T06:21:40.724Z,1006.11
2022-08-29T06:22:40.795Z,1006.08
2022-08-29T06:23:40.689Z,1006.15
2022-08-29T06:24:44.482Z,1006.17
2022-08-29T06:25:40.752Z,1006.14
2022-08-29T06:26:41.217Z,1006.18
2022-08-29T06:27:40.625Z,1006.16
2022-08-29T06:28:40.613Z,1006.14
2022-08-29T06:29:43.086Z,1006.20
2022-08-29T06:30:40.651Z,1006.21
2022-08-29T06:31:40.561Z,1006.18
2022-08-29T06:32:40.545Z,1006.21
2022-08-29T06:34:40.553Z,1006.26
2022-08-29T06:35:40.559Z,1006.30
2022-08-29T06:36:40.513Z,1006.32
2022-08-29T06:37:40.499Z,1006.29
2022-08-29T06:38:40.474Z,1006.31
2022-08-29T06:39:40.465Z,1006.34
2022-08-29T06:41:01.469Z,1006.29
2022-08-29T06:41:40.435Z,1006.36
2022-08-29T06:42:40.435Z,1006.40
2022-08-29T06:43:40.408Z,1006.39
2022-08-29T06:44:44.419Z,1006.35
2022-08-29T06:45:40.362Z,1006.43
2022-08-29T06:47:01.366Z,1006.34
2022-08-29T06:47:40.349Z,1006.38
2022-08-29T06:48:40.324Z,1006.38
2022-08-29T06:49:40.366Z,1006.40
2022-08-29T06:50:44.889Z,1006.35
2022-08-29T06:51:40.288Z,1006.46
2022-08-29T06:53:20.643Z,1006.41
2022-08-29T06:53:40.465Z,1006.42
2022-08-29T06:54:40.228Z,1006.47
2022-08-29T06:55:40.216Z,1006.40
2022-08-29T06:56:40.199Z,1006.44
2022-08-29T06:57:40.185Z,1006.48
2022-08-29T06:59:01.792Z,1006.53
2022-08-29T06:59:40.144Z,1006.51
2022-08-29T07:00:40.167Z,1006.48
2022-08-29T07:01:40.170Z,1006.55
2022-08-29T07:02:40.210Z,1006.48
2022-08-29T07:03:40.084Z,1006.59
2022-08-29T07:05:01.110Z,1006.58
2022-08-29T07:05:40.091Z,1006.58
2022-08-29T07:06:40.036Z,1006.58
2022-08-29T07:07:40.789Z,1006.55
2022-08-29T07:08:55.261Z,1006.63
2022-08-29T07:09:40.055Z,1006.55
2022-08-29T07:11:00.991Z,1006.60
2022-08-29T07:11:41.293Z,1006.59
2022-08-29T07:12:39.973Z,1006.57
2022-08-29T07:13:39.934Z,1006.59
2022-08-29T07:14:39.955Z,1006.56
2022-08-29T07:15:39.905Z,1006.57
2022-08-29T07:17:00.944Z,1006.61
2022-08-29T07:17:39.866Z,1006.59
2022-08-29T07:18:41.150Z,1006.59
2022-08-29T07:19:39.875Z,1006.66
2022-08-29T07:20:39.840Z,1006.66
2022-08-29T07:21:39.802Z,1006.69
2022-08-29T07:23:00.800Z,1006.75
2022-08-29T07:23:39.803Z,1006.78
2022-08-29T07:24:39.792Z,1006.82
2022-08-29T07:25:40.298Z,1006.81
2022-08-29T07:26:39.753Z,1006.80
2022-08-29T07:27:39.725Z,1006.79
2022-08-29T07:29:00.725Z,1006.75
2022-08-29T07:29:39.690Z,1006.75
2022-08-29T07:30:39.805Z,1006.83
2022-08-29T07:31:39.654Z,1006.76
2022-08-29T07:32:39.660Z,1006.81
2022-08-29T07:33:39.613Z,1006.79
2022-08-29T07:35:00.632Z,1006.83
2022-08-29T07:35:39.589Z,1006.85
2022-08-29T07:36:39.579Z,1006.81
2022-08-29T07:37:39.559Z,1006.84
2022-08-29T07:38:39.562Z,1006.80
2022-08-29T07:39:39.539Z,1006.84
2022-08-29T07:41:00.513Z,1006.78
2022-08-29T07:41:39.517Z,1006.82
2022-08-29T07:42:39.486Z,1006.82
2022-08-29T07:43:39.479Z,1006.79
2022-08-29T07:44:39.447Z,1006.81
2022-08-29T07:45:39.504Z,1006.76
2022-08-29T07:47:00.437Z,1006.82
2022-08-29T07:47:39.411Z,1006.75
2022-08-29T07:48:39.418Z,1006.80
2022-08-29T07:49:41.689Z,1006.81
2022-08-29T07:50:39.418Z,1006.84
2022-08-29T07:51:39.348Z,1006.83
2022-08-29T07:53:00.317Z,1006.83
2022-08-29T07:53:39.452Z,1006.85
2022-08-29T07:54:39.294Z,1006.87
2022-08-29T07:55:39.363Z,1006.91
2022-08-29T07:56:39.275Z,1006.90
2022-08-29T07:57:39.982Z,1006.90
2022-08-29T07:59:00.224Z,1006.93
2022-08-29T07:59:39.228Z,1006.94
2022-08-29T08:00:39.197Z,1006.92
2022-08-29T08:01:39.219Z,1006.95
2022-08-29T08:02:39.287Z,1006.90
2022-08-29T08:03:39.155Z,1006.92
2022-08-29T08:05:00.154Z,1006.93
2022-08-29T08:05:39.121Z,1006.95
2022-08-29T08:06:39.120Z,1006.94
2022-08-29T08:07:40.084Z,1006.91
2022-08-29T08:08:39.086Z,1006.98
2022-08-29T08:09:39.096Z,1006.89
2022-08-29T08:11:00.052Z,1006.93
2022-08-29T08:11:39.042Z,1006.91
2022-08-29T08:12:39.011Z,1006.94
2022-08-29T08:13:39.026Z,1006.93
2022-08-29T08:14:38.979Z,1006.93
2022-08-29T08:15:38.997Z,1007.00
2022-08-29T08:16:59.977Z,1006.98
2022-08-29T08:17:43.348Z,1007.03
2022-08-29T08:18:38.935Z,1007.03
2022-08-29T08:19:38.954Z,1007.09
2022-08-29T08:20:39.823Z,1007.13
2022-08-29T08:21:38.875Z,1007.06
2022-08-29T08:22:59.873Z,1007.10
2022-08-29T08:23:38.848Z,1007.12
2022-08-29T08:24:38.824Z,1007.10
2022-08-29T08:25:38.829Z,1007.13
2022-08-29T08:26:38.873Z,1007.11
2022-08-29T08:27:43.396Z,1007.11
2022-08-29T08:28:59.764Z,1007.14
2022-08-29T08:29:38.791Z,1007.14
2022-08-29T08:30:38.782Z,1007.17
2022-08-29T08:31:38.830Z,1007.10
2022-08-29T08:32:41.106Z,1007.13
2022-08-29T08:33:38.699Z,1007.08
2022-08-29T08:34:59.691Z,1007.17
2022-08-29T08:35:41.906Z,1007.15
2022-08-29T08:36:41.030Z,1007.12
2022-08-29T08:37:38.643Z,1007.20
2022-08-29T08:38:38.614Z,1007.14
2022-08-29T08:39:38.589Z,1007.13
2022-08-29T08:40:59.640Z,1007.12
2022-08-29T08:41:38.637Z,1007.09
2022-08-29T08:42:38.562Z,1007.08
2022-08-29T08:43:38.615Z,1007.03
2022-08-29T08:44:38.513Z,1007.01
2022-08-29T08:45:38.560Z,1007.08
2022-08-29T08:46:59.498Z,1006.94
2022-08-29T08:47:38.471Z,1006.94
2022-08-29T08:48:38.473Z,1006.97
2022-08-29T08:49:38.458Z,1007.00
2022-08-29T08:50:38.455Z,1007.06
2022-08-29T08:51:38.424Z,1007.04
2022-08-29T08:52:59.498Z,1007.00
2022-08-29T08:53:38.384Z,1007.03
2022-08-29T08:54:38.378Z,1007.11
2022-08-29T08:55:38.376Z,1007.07
2022-08-29T08:56:38.324Z,1007.06
2022-08-29T08:57:38.309Z,1007.08
2022-08-29T08:58:59.296Z,1007.04
2022-08-29T08:59:38.315Z,1007.10
2022-08-29T09:00:38.272Z,1007.07
2022-08-29T09:01:39.026Z,1007.14
2022-08-29T09:02:38.299Z,1007.10
2022-08-29T09:03:38.216Z,1007.14
2022-08-29T09:04:59.216Z,1007.14
2022-08-29T09:05:38.186Z,1007.09
2022-08-29T09:06:38.200Z,1007.24
2022-08-29T09:07:38.162Z,1007.11
2022-08-29T09:08:38.140Z,1007.18
2022-08-29T09:09:38.133Z,1007.13
2022-08-29T09:10:59.385Z,1007.16
2022-08-29T09:11:38.090Z,1007.16
2022-08-29T09:12:38.078Z,1007.17
2022-08-29T09:13:38.075Z,1007.14
2022-08-29T09:14:38.036Z,1007.15
2022-08-29T09:15:38.063Z,1007.16
2022-08-29T09:16:59.077Z,1007.16
2022-08-29T09:17:38.026Z,1007.19
2022-08-29T09:18:37.986Z,1007.15
2022-08-29T09:19:37.972Z,1007.23
2022-08-29T09:20:37.950Z,1007.24
2022-08-29T09:21:41.040Z,1007.22
2022-08-29T09:22:58.957Z,1007.19
2022-08-29T09:23:37.896Z,1007.19
2022-08-29T09:24:37.913Z,1007.22
2022-08-29T09:25:37.930Z,1007.25
2022-08-29T09:26:37.883Z,1007.27
2022-08-29T09:27:37.849Z,1007.29
2022-08-29T09:28:58.824Z,1007.29
2022-08-29T09:29:37.830Z,1007.27
2022-08-29T09:30:37.790Z,1007.29
2022-08-29T09:31:38.788Z,1007.26
2022-08-29T09:32:37.793Z,1007.15
2022-08-29T09:33:38.343Z,1007.25
2022-08-29T09:35:08.523Z,1007.20
2022-08-29T09:35:37.721Z,1007.16
2022-08-29T09:36:37.754Z,1007.20
2022-08-29T09:37:37.678Z,1007.20
2022-08-29T09:38:37.692Z,1007.28
2022-08-29T09:39:37.652Z,1007.26
2022-08-29T09:40:58.644Z,1007.25
2022-08-29T09:41:37.621Z,1007.23
2022-08-29T09:42:37.615Z,1007.21
2022-08-29T09:43:37.624Z,1007.21
2022-08-29T09:44:37.582Z,1007.22
2022-08-29T09:45:37.649Z,1007.21
2022-08-29T09:46:58.627Z,1007.27
2022-08-29T09:47:37.528Z,1007.30
2022-08-29T09:48:37.504Z,1007.31
2022-08-29T09:49:37.502Z,1007.37
2022-08-29T09:50:37.498Z,1007.36
2022-08-29T09:51:37.475Z,1007.30
2022-08-29T09:52:58.444Z,1007.29
2022-08-29T09:53:37.506Z,1007.30
2022-08-29T09:54:37.428Z,1007.30
2022-08-29T09:55:37.407Z,1007.35
2022-08-29T09:56:37.407Z,1007.27
2022-08-29T09:57:37.387Z,1007.26
2022-08-29T09:58:58.360Z,1007.33
2022-08-29T09:59:37.345Z,1007.29
2022-08-29T10:00:37.332Z,1007.29
2022-08-29T10:01:37.445Z,1007.31
2022-08-29T10:02:37.341Z,1007.31
2022-08-29T10:03:38.111Z,1007.39
2022-08-29T10:04:58.263Z,1007.32
2022-08-29T10:05:37.259Z,1007.40
2022-08-29T10:06:42.714Z,1007.40
2022-08-29T10:07:37.812Z,1007.41
2022-08-29T10:08:37.219Z,1007.43
2022-08-29T10:09:37.192Z,1007.45
2022-08-29T10:10:58.900Z,1007.47
2022-08-29T10:11:37.143Z,1007.49
2022-08-29T10:12:37.207Z,1007.50
2022-08-29T10:13:37.118Z,1007.52
2022-08-29T10:14:37.905Z,1007.56
2022-08-29T10:15:50.410Z,1007.50
2022-08-29T10:16:58.103Z,1007.59
2022-08-29T10:17:37.095Z,1007.58
2022-08-29T10:18:37.041Z,1007.56
2022-08-29T10:19:37.056Z,1007.60
2022-08-29T10:20:37.035Z,1007.58
2022-08-29T10:21:37.030Z,1007.61
2022-08-29T10:22:58.032Z,1007.56
2022-08-29T10:23:37.902Z,1007.57
2022-08-29T10:24:36.970Z,1007.64
2022-08-29T10:25:36.996Z,1007.65
2022-08-29T10:26:36.937Z,1007.66
2022-08-29T10:27:36.897Z,1007.63
2022-08-29T10:29:36.920Z,1007.67
2022-08-29T10:30:36.905Z,1007.67
2022-08-29T10:31:37.010Z,1007.64
2022-08-29T10:32:36.838Z,1007.66
2022-08-29T10:33:36.831Z,1007.72
2022-08-29T10:36:08.431Z,1007.66
2022-08-29T10:37:08.347Z,1007.66
2022-08-29T10:39:03.219Z,1007.75
2022-08-29T10:40:03.377Z,1007.68
2022-08-29T10:41:03.341Z,1007.77
2022-08-29T10:42:03.776Z,1007.81
2022-08-29T10:43:03.187Z,1007.80
2022-08-29T10:44:04.722Z,1007.80
2022-08-29T10:45:03.148Z,1007.84
2022-08-29T10:46:03.189Z,1007.84
2022-08-29T10:47:03.138Z,1007.84
2022-08-29T10:48:03.089Z,1007.84
2022-08-29T10:49:03.076Z,1007.84
2022-08-29T10:50:03.081Z,1007.86
2022-08-29T10:51:03.839Z,1007.86
2022-08-29T10:52:03.087Z,1007.93
2022-08-29T10:53:09.889Z,1007.97
2022-08-29T10:54:03.020Z,1007.94
2022-08-29T10:55:03.018Z,1007.98
2022-08-29T10:56:06.832Z,1007.96
2022-08-29T10:57:02.941Z,1007.99
2022-08-29T10:58:02.944Z,1008.00
2022-08-29T10:59:02.931Z,1008.02
2022-08-29T11:00:02.890Z,1008.01
2022-08-29T11:01:06.885Z,1008.01
2022-08-29T11:02:02.864Z,1008.04
2022-08-29T11:03:03.788Z,1008.00
2022-08-29T11:04:02.886Z,1008.04
2022-08-29T11:05:02.858Z,1008.07
2022-08-29T11:06:02.801Z,1008.05
2022-08-29T11:07:02.794Z,1008.06
2022-08-29T11:08:03.081Z,1008.08
2022-08-29T11:09:02.785Z,1008.08
2022-08-29T11:10:02.751Z,1008.09
2022-08-29T11:11:02.721Z,1008.06
2022-08-29T11:12:02.728Z,1008.08
2022-08-29T11:13:02.725Z,1008.06
2022-08-29T11:14:05.887Z,1008.06
2022-08-29T11:15:02.692Z,1008.08
2022-08-29T11:16:02.686Z,1008.09
2022-08-29T11:17:03.221Z,1008.11
2022-08-29T11:18:02.666Z,1008.11
2022-08-29T11:19:02.589Z,1008.11
2022-08-29T11:20:02.575Z,1008.12
2022-08-29T11:21:02.580Z,1008.10
2022-08-29T11:22:02.559Z,1008.11
2022-08-29T11:23:03.287Z,1008.14
2022-08-29T11:24:02.542Z,1008.07
2022-08-29T11:25:02.518Z,1008.07
2022-08-29T11:26:02.518Z,1008.04
2022-08-29T11:27:02.483Z,1008.07
2022-08-29T11:28:02.480Z,1008.10
2022-08-29T11:29:02.437Z,1008.10
2022-08-29T11:30:02.439Z,1008.12
2022-08-29T11:31:02.449Z,1008.08
2022-08-29T11:32:02.450Z,1008.18
2022-08-29T11:33:02.401Z,1008.07
2022-08-29T11:34:02.359Z,1008.11
2022-08-29T11:35:02.349Z,1008.06
2022-08-29T11:36:05.016Z,1008.06
2022-08-29T11:37:02.362Z,1008.12
2022-08-29T11:38:02.295Z,1008.09
2022-08-29T11:39:02.299Z,1008.10
2022-08-29T11:40:02.317Z,1008.07
2022-08-29T11:42:02.258Z,1008.04
2022-08-29T11:43:02.219Z,1008.06
2022-08-29T11:44:02.213Z,1008.05
2022-08-29T11:45:02.204Z,1008.02
2022-08-29T11:46:02.184Z,1008.02
2022-08-29T11:47:02.213Z,1008.04
2022-08-29T11:48:02.150Z,1007.99
2022-08-29T11:49:02.168Z,1008.02
2022-08-29T11:50:02.109Z,1008.04
2022-08-29T11:51:02.128Z,1008.08
2022-08-29T11:52:02.197Z,1007.98
2022-08-29T11:53:02.099Z,1008.00
2022-08-29T11:54:02.060Z,1008.05
2022-08-29T11:55:02.092Z,1008.06
2022-08-29T11:56:02.015Z,1008.05
2022-08-29T11:57:02.009Z,1007.98
2022-08-29T11:58:05.650Z,1008.03
2022-08-29T11:59:01.999Z,1008.10
2022-08-29T12:00:02.003Z,1008.05
2022-08-29T12:01:01.935Z,1008.04
2022-08-29T12:02:02.048Z,1007.97
2022-08-29T12:03:04.399Z,1008.06
2022-08-29T12:04:02.793Z,1008.04
2022-08-29T12:05:01.887Z,1008.06
2022-08-29T12:06:01.865Z,1008.04
2022-08-29T12:07:01.858Z,1007.96
2022-08-29T12:08:14.428Z,1007.98
2022-08-29T12:09:05.285Z,1007.93
2022-08-29T12:10:01.839Z,1008.00
2022-08-29T12:11:01.803Z,1007.96